Time;durP1;ratioP1;P1;durP2;ratioP2;P2;SDS_P1;SDS_P2;PMS_P1;PMS_P2;Temp;Humidity;BMP_temperature;BMP_pressure;BME280_temperature;BME280_humidity;BME280_pressure;Samples;Min_cycle;Max_cycle;Signal;HPM_P1;HPM_P2
2023/05/06 00:02:49;;;;;;;9.47;8.67;;;;;;;20.79;42.18;95167.88;6032512;28;109916;-67
2023/05/06 00:05:53;;;;;;;11.20;9.80;;;;;;;20.82;42.14;95164.63;6037604;28;109041;-66
2023/05/06 00:08:56;;;;;;;9.50;8.50;;;;;;;20.76;41.93;95161.28;6037495;28;109244;-65
2023/05/06 00:11:59;;;;;;;10.57;9.57;;;;;;;20.80;42.37;95169.47;6026289;28;110546;-65
2023/05/06 00:15:04;;;;;;;9.67;8.87;;;;;;;20.77;42.20;95164.75;6037319;28;109111;-65
2023/05/06 00:18:07;;;;;;;10.43;9.43;;;;;;;20.77;42.70;95168.19;6036952;28;109262;-66
2023/05/06 00:21:10;;;;;;;10.83;9.73;;;;;;;20.78;42.21;95167.09;6037655;28;109380;-66
2023/05/06 00:24:13;;;;;;;9.73;8.83;;;;;;;20.77;42.04;95162.88;6029862;28;110254;-66
2023/05/06 00:27:16;;;;;;;11.07;9.80;;;;;;;20.78;42.29;95169.75;6034479;28;109098;-65
2023/05/06 00:30:21;;;;;;;9.47;8.67;;;;;;;20.78;41.85;95166.31;6035864;28;109199;-66
2023/05/06 00:33:24;;;;;;;12.10;9.80;;;;;;;20.77;42.18;95168.19;6037668;28;109410;-64
2023/05/06 00:36:27;;;;;;;9.57;8.67;;;;;;;20.71;42.05;95163.25;6028490;28;109413;-64
2023/05/06 00:39:30;;;;;;;10.20;9.20;;;;;;;20.63;42.07;95146.09;6040556;28;109230;-65
2023/05/06 00:42:34;;;;;;;9.30;8.50;;;;;;;20.77;42.32;95162.88;6040859;28;109081;-64
2023/05/06 00:45:39;;;;;;;9.37;8.47;;;;;;;20.77;42.05;95165.53;6033974;28;109780;-66
2023/05/06 00:48:43;;;;;;;11.60;8.60;;;;;;;20.76;42.04;95163.94;6039955;28;110472;-65
2023/05/06 00:51:46;;;;;;;9.70;8.73;;;;;;;20.75;41.90;95162.38;6040824;28;109086;-65
2023/05/06 00:54:49;;;;;;;9.13;8.20;;;;;;;20.76;42.15;95163.94;6042252;28;109297;-65
2023/05/06 00:57:53;;;;;;;9.30;8.40;;;;;;;20.74;42.34;95160.81;6033749;28;108821;-70
2023/05/06 01:00:58;;;;;;;8.97;8.07;;;;;;;20.69;41.92;95147.59;6038393;28;108877;-65
2023/05/06 01:04:01;;;;;;;9.67;7.90;;;;;;;20.73;42.06;95156.56;6040154;28;110529;-65
2023/05/06 01:07:12;;;;;;;8.80;7.90;;;;;;;20.67;42.04;95151.63;6040519;28;109472;-65
2023/05/06 01:10:22;;;;;;;8.60;7.50;;;;;;;20.72;42.18;95160.31;6029786;28;109191;-65
2023/05/06 01:13:34;;;;;;;8.33;7.63;;;;;;;20.70;41.97;95151.84;6044631;28;109245;-65
2023/05/06 01:16:40;;;;;;;8.20;7.27;;;;;;;20.67;42.12;95147.13;6049033;28;109154;-65
2023/05/06 01:19:48;;;;;;;8.13;7.43;;;;;;;20.71;41.92;95152.63;6040090;28;108857;-65
2023/05/06 01:22:52;;;;;;;7.90;7.30;;;;;;;20.71;42.16;95161.41;6040181;28;109482;-65
2023/05/06 01:25:56;;;;;;;8.50;7.17;;;;;;;20.73;42.07;95153.13;6017312;28;109443;-65
2023/05/06 01:29:00;;;;;;;8.30;7.50;;;;;;;20.73;41.86;95161.09;6029023;28;110253;-64
2023/05/06 01:32:16;;;;;;;9.07;6.53;;;;;;;20.73;41.96;95153.13;6028857;28;109372;-65
2023/05/06 01:35:27;;;;;;;8.60;6.33;;;;;;;20.71;42.11;95148.09;6026059;28;109074;-66
2023/05/06 01:38:37;;;;;;;7.03;6.33;;;;;;;20.70;42.25;95143.88;6035915;28;109760;-66
2023/05/06 01:41:43;;;;;;;9.00;7.33;;;;;;;20.70;42.10;95140.41;6040042;28;108812;-65
2023/05/06 01:44:48;;;;;;;10.17;6.83;;;;;;;20.67;41.95;95136.47;6031804;28;109208;-65
2023/05/06 01:47:52;;;;;;;7.23;6.50;;;;;;;20.70;42.04;95143.88;6037921;28;111412;-65
2023/05/06 01:50:55;;;;;;;7.07;6.37;;;;;;;20.68;41.95;95146.03;6039167;28;109376;-66
2023/05/06 01:53:58;;;;;;;8.43;7.63;;;;;;;20.67;42.06;95143.63;6029962;28;109704;-65
2023/05/06 01:57:03;;;;;;;6.73;6.07;;;;;;;20.64;42.34;95147.69;6038826;28;112607;-65
2023/05/06 02:00:08;;;;;;;7.03;6.37;;;;;;;20.65;42.15;95154.56;6039756;28;109420;-65
2023/05/06 02:03:11;;;;;;;6.83;6.23;;;;;;;20.59;41.93;95145.13;6039122;28;109117;-65
2023/05/06 02:06:14;;;;;;;7.17;6.47;;;;;;;20.65;42.27;95149.25;6029144;28;110047;-65
2023/05/06 02:09:17;;;;;;;7.27;6.30;;;;;;;20.63;42.12;95151.41;6039353;28;109263;-66
2023/05/06 02:12:22;;;;;;;6.97;6.23;;;;;;;20.60;42.29;95136.06;6039317;28;111197;-65
2023/05/06 02:15:25;;;;;;;6.37;5.70;;;;;;;20.64;42.38;95150.34;6038996;28;109261;-64
2023/05/06 02:18:29;;;;;;;9.67;6.23;;;;;;;20.63;42.00;95140.78;6028303;28;109427;-64
2023/05/06 02:21:32;;;;;;;7.57;5.87;;;;;;;20.63;41.91;95152.22;6039163;28;108671;-70
2023/05/06 02:24:35;;;;;;;6.50;5.90;;;;;;;20.63;41.69;95148.75;6038693;28;109037;-68
2023/05/06 02:27:39;;;;;;;8.63;6.37;;;;;;;20.62;41.90;95147.97;6022393;28;109164;-69
2023/05/06 02:30:42;;;;;;;8.53;5.70;;;;;;;20.63;42.08;95143.44;6034154;28;110169;-70
2023/05/06 02:33:46;;;;;;;7.40;5.90;;;;;;;20.50;42.23;95122.94;6037866;28;109258;-69
2023/05/06 02:36:49;;;;;;;7.37;5.80;;;;;;;20.59;42.23;95139.81;6041385;28;108944;-68
2023/05/06 02:39:52;;;;;;;7.00;5.13;;;;;;;20.61;42.08;95148.28;6028035;28;109206;-68
2023/05/06 02:42:56;;;;;;;6.43;5.40;;;;;;;20.63;42.11;95149.56;6038753;28;110216;-69
2023/05/06 02:45:59;;;;;;;8.00;6.17;;;;;;;20.57;42.17;95148.06;6040247;28;109374;-68
2023/05/06 02:49:03;;;;;;;5.40;4.90;;;;;;;20.60;41.96;95149.34;6038600;28;111735;-69
2023/05/06 02:52:06;;;;;;;6.40;5.80;;;;;;;20.57;42.03;95152.59;6028547;28;109210;-69
2023/05/06 02:55:10;;;;;;;6.00;5.50;;;;;;;20.54;42.21;95147.88;6040602;28;109824;-69
2023/05/06 02:58:15;;;;;;;6.33;5.73;;;;;;;20.58;41.84;95156.84;6037812;28;109188;-69
2023/05/06 03:01:18;;;;;;;5.73;5.17;;;;;;;20.58;41.97;95167.47;6035787;28;109150;-68
2023/05/06 03:04:21;;;;;;;6.30;5.20;;;;;;;20.57;42.11;95160.56;6029689;28;110264;-69
2023/05/06 03:07:25;;;;;;;5.67;5.00;;;;;;;20.56;42.15;95172.28;6038146;28;109184;-69
2023/05/06 03:10:28;;;;;;;5.53;5.03;;;;;;;20.55;41.97;95168.84;6044025;28;109263;-68
2023/05/06 03:13:32;;;;;;;4.80;4.40;;;;;;;20.56;41.93;95156.34;6028190;28;109956;-68
2023/05/06 03:16:35;;;;;;;5.50;4.97;;;;;;;20.55;42.08;95163.53;6038332;28;109376;-68
2023/05/06 03:19:39;;;;;;;5.23;4.83;;;;;;;20.51;41.85;95162.53;6044758;28;112328;-69
2023/05/06 03:22:42;;;;;;;5.90;4.80;;;;;;;20.54;41.95;95174.47;6038373;28;108877;-68
2023/05/06 03:25:45;;;;;;;5.60;5.03;;;;;;;20.55;41.68;95176.81;6028164;28;109483;-70
2023/05/06 03:28:50;;;;;;;4.47;4.13;;;;;;;20.56;41.73;95180.28;6038264;28;111625;-69
2023/05/06 03:31:55;;;;;;;5.77;4.80;;;;;;;20.51;41.75;95173.19;6040040;28;109027;-67
2023/05/06 03:34:58;;;;;;;5.03;4.13;;;;;;;20.54;41.87;95183.22;6037680;28;109252;-67
2023/05/06 03:38:02;;;;;;;4.70;4.30;;;;;;;20.51;41.83;95175.06;6027504;28;109041;-67
2023/05/06 03:41:05;;;;;;;5.50;5.00;;;;;;;20.52;41.83;95180.06;6038075;28;112418;-67
2023/05/06 03:44:10;;;;;;;7.40;4.83;;;;;;;20.51;41.84;95183.03;6036956;28;109266;-66
2023/05/06 03:47:13;;;;;;;7.47;4.60;;;;;;;20.54;42.06;95187.75;6010036;28;109587;-67
2023/05/06 03:50:16;;;;;;;5.93;4.80;;;;;;;20.55;41.83;95189.31;6032663;28;109227;-67
2023/05/06 03:53:19;;;;;;;5.27;4.77;;;;;;;20.55;42.01;95186.66;6046294;28;109056;-67
2023/05/06 03:56:22;;;;;;;5.00;4.60;;;;;;;20.55;41.65;95197.31;6041496;28;109215;-67
2023/05/06 03:59:27;;;;;;;9.37;5.20;;;;;;;20.53;41.81;95191.50;6027003;28;108965;-67
2023/05/06 04:02:30;;;;;;;9.00;5.40;;;;;;;20.55;41.67;95198.09;6037407;28;108798;-66
2023/05/06 04:05:33;;;;;;;12.53;6.60;;;;;;;20.55;41.92;95192.78;6036333;28;111801;-67
2023/05/06 04:08:36;;;;;;;10.53;7.90;;;;;;;20.55;41.81;95195.44;6037497;28;109080;-65
2023/05/06 04:11:40;;;;;;;51.23;16.90;;;;;;;20.42;42.20;95192.72;6027971;28;109549;-68
2023/05/06 04:14:44;;;;;;;13.57;9.60;;;;;;;20.25;40.47;95199.38;6040040;28;109064;-67
2023/05/06 04:17:48;;;;;;;12.83;9.70;;;;;;;20.24;40.36;95192.47;6022473;28;109083;-68
2023/05/06 04:20:51;;;;;;;12.17;10.70;;;;;;;20.24;40.41;95205.75;6017578;28;109290;-67
2023/05/06 04:23:54;;;;;;;11.10;9.97;;;;;;;20.25;40.03;95206.56;6034500;28;109800;-68
2023/05/06 04:26:57;;;;;;;13.47;11.27;;;;;;;20.24;40.09;95207.59;6041632;28;109191;-68
2023/05/06 04:30:02;;;;;;;11.50;10.30;;;;;;;20.23;40.07;95214.78;6040757;28;109686;-68
2023/05/06 04:33:05;;;;;;;9.87;8.97;;;;;;;20.21;39.91;95201.00;6028520;28;110534;-68
2023/05/06 04:36:09;;;;;;;8.27;7.57;;;;;;;20.18;39.66;95209.56;6040119;28;109095;-69
2023/05/06 04:39:12;;;;;;;8.00;7.23;;;;;;;20.19;39.62;95213.78;6043490;28;108855;-70
2023/05/06 04:42:16;;;;;;;8.70;7.60;;;;;;;20.18;39.61;95214.88;6042139;28;108814;-67
2023/05/06 04:45:21;;;;;;;6.10;5.67;;;;;;;20.17;39.61;95223.13;6030513;28;109127;-67
2023/05/06 04:48:27;;;;;;;16.53;6.60;;;;;;;20.11;39.54;95232.22;6039798;28;109371;-67
2023/05/06 04:51:30;;;;;;;27.60;8.70;;;;;;;20.15;39.82;95228.72;6038874;28;109100;-66
2023/05/06 04:54:33;;;;;;;10.17;6.10;;;;;;;20.16;39.42;95230.28;6039711;28;109334;-65
2023/05/06 04:57:37;;;;;;;21.43;8.30;;;;;;;20.09;40.23;95232.53;6030807;28;110505;-67
2023/05/06 05:00:41;;;;;;;14.23;8.30;;;;;;;20.03;39.81;95229.16;6037971;28;109021;-64
2023/05/06 05:03:44;;;;;;;13.67;9.80;;;;;;;20.10;39.83;95235.97;6039754;28;109364;-66
2023/05/06 05:06:48;;;;;;;21.93;9.60;;;;;;;20.14;40.23;95235.09;6034540;28;109348;-67
2023/05/06 05:09:51;;;;;;;16.97;7.70;;;;;;;20.23;39.79;95236.03;6035295;28;109068;-65
2023/05/06 05:12:54;;;;;;;16.90;8.70;;;;;;;20.22;39.92;95245.09;6040452;28;109981;-66
2023/05/06 05:15:59;;;;;;;10.23;7.17;;;;;;;20.25;40.03;95243.75;6040824;28;109380;-66
2023/05/06 05:19:03;;;;;;;20.63;8.63;;;;;;;20.29;40.57;95239.44;6031027;28;109312;-66
2023/05/06 05:22:07;;;;;;;25.80;10.43;;;;;;;20.26;40.68;95246.13;6039058;28;109297;-66
2023/05/06 05:25:10;;;;;;;22.97;9.50;;;;;;;20.30;41.26;95247.13;6037451;28;109801;-66
2023/05/06 05:28:14;;;;;;;20.03;9.10;;;;;;;20.33;41.39;95248.41;6040373;28;109111;-66
2023/05/06 05:31:18;;;;;;;21.53;8.20;;;;;;;20.28;41.50;95230.66;6019380;28;110143;-66
2023/05/06 05:34:21;;;;;;;22.73;9.07;;;;;;;20.37;42.07;95244.09;6031437;28;110332;-67
2023/05/06 05:37:24;;;;;;;19.50;8.43;;;;;;;20.39;42.67;95252.56;6039633;28;109257;-65
2023/05/06 05:40:28;;;;;;;16.17;8.63;;;;;;;20.34;42.98;95230.63;6035179;28;109238;-68
2023/05/06 05:43:31;;;;;;;21.20;9.27;;;;;;;20.40;43.30;95245.41;6031201;28;109318;-68
2023/05/06 05:46:35;;;;;;;16.10;11.00;;;;;;;20.43;45.66;95244.81;6045500;28;109303;-66
2023/05/06 05:49:41;;;;;;;29.97;13.90;;;;;;;20.45;46.28;95242.66;6040784;28;109221;-68
2023/05/06 05:52:44;;;;;;;48.20;17.10;;;;;;;20.48;47.61;95248.16;6050047;28;110490;-69
2023/05/06 05:55:47;;;;;;;29.00;17.50;;;;;;;20.49;47.76;95254.28;6033251;28;109097;-69
2023/05/06 05:58:51;;;;;;;40.03;21.70;;;;;;;20.53;49.05;95255.28;6036972;28;110968;-69
2023/05/06 06:01:55;;;;;;;40.70;20.13;;;;;;;20.50;48.66;95259.31;6048338;28;109332;-70
2023/05/06 06:04:58;;;;;;;37.90;21.90;;;;;;;20.47;48.26;95251.91;6032981;28;109505;-69
2023/05/06 06:08:02;;;;;;;38.90;20.13;;;;;;;20.55;48.41;95256.56;6039833;28;109014;-69
2023/05/06 06:11:06;;;;;;;40.80;19.07;;;;;;;20.53;47.19;95263.28;6041488;28;109060;-68
2023/05/06 06:14:10;;;;;;;50.70;19.13;;;;;;;20.52;45.79;95261.69;6040388;28;109097;-69
2023/05/06 06:17:15;;;;;;;44.10;18.57;;;;;;;20.51;46.99;95260.13;6029183;28;108795;-69
2023/05/06 06:20:18;;;;;;;49.50;18.40;;;;;;;20.45;46.05;95259.38;6038715;28;109303;-70
2023/05/06 06:23:21;;;;;;;52.63;19.90;;;;;;;20.44;45.83;95257.03;6038041;28;109590;-70
2023/05/06 06:26:24;;;;;;;41.87;16.77;;;;;;;20.46;46.07;95260.16;6048619;28;109579;-70
2023/05/06 06:29:27;;;;;;;69.10;19.47;;;;;;;20.45;45.64;95258.59;6036153;28;111433;-69
2023/05/06 06:32:32;;;;;;;61.70;19.53;;;;;;;20.51;46.10;95260.13;6029228;28;109494;-69
2023/05/06 06:35:35;;;;;;;58.93;19.00;;;;;;;20.51;46.47;95265.44;6030551;28;112311;-69
2023/05/06 06:38:40;;;;;;;72.77;19.43;;;;;;;20.52;46.45;95253.72;6029418;28;110098;-68
2023/05/06 06:41:43;;;;;;;67.27;19.87;;;;;;;20.53;46.78;95257.94;6059518;28;113602;-68
2023/05/06 06:44:46;;;;;;;72.00;18.83;;;;;;;20.57;46.50;95269.59;6038469;28;109434;-69
2023/05/06 06:47:51;;;;;;;75.87;18.43;;;;;;;20.60;46.48;95271.66;6038227;28;109329;-68
2023/05/06 06:50:54;;;;;;;61.73;17.80;;;;;;;20.60;46.46;95276.97;6022309;28;109795;-67
2023/05/06 06:53:57;;;;;;;49.27;16.40;;;;;;;20.60;46.23;95271.66;6033259;28;109556;-68
2023/05/06 06:57:01;;;;;;;50.93;15.23;;;;;;;20.60;46.21;95264.47;6037946;28;109007;-66
2023/05/06 07:00:04;;;;;;;37.50;14.50;;;;;;;20.75;46.27;95273.28;6034333;28;109114;-65
2023/05/06 07:03:09;;;;;;;29.97;12.93;;;;;;;20.76;46.46;95272.19;6033782;28;109976;-66
2023/05/06 07:06:13;;;;;;;30.67;13.57;;;;;;;20.72;46.27;95273.88;6037840;28;109340;-67
2023/05/06 07:09:16;;;;;;;27.17;12.60;;;;;;;20.69;45.94;95274.47;6041479;28;112235;-69
2023/05/06 07:12:19;;;;;;;27.53;13.50;;;;;;;20.64;45.08;95272.66;6024879;28;109311;-67
2023/05/06 07:15:23;;;;;;;37.77;15.03;;;;;;;20.67;46.57;95269.44;6040745;28;109039;-67
2023/05/06 07:18:27;;;;;;;40.10;14.00;;;;;;;20.69;46.41;95280.56;6034683;28;109770;-67
2023/05/06 07:21:31;;;;;;;35.47;13.97;;;;;;;20.69;46.18;95269.94;6038044;28;109471;-67
2023/05/06 07:24:34;;;;;;;32.53;13.50;;;;;;;20.65;45.87;95270.78;6028014;28;109348;-67
2023/05/06 07:27:38;;;;;;;27.27;15.87;;;;;;;20.58;44.84;95284.44;6037039;28;109625;-67
2023/05/06 07:30:41;;;;;;;24.53;19.90;;;;;;;20.51;44.32;95282.16;6036488;28;109440;-67
2023/05/06 07:33:46;;;;;;;23.60;21.17;;;;;;;20.50;44.43;95277.94;6029548;28;112682;-66
2023/05/06 07:36:49;;;;;;;46.30;16.87;;;;;;;20.28;44.12;95270.53;6028185;28;109274;-66
2023/05/06 07:39:52;;;;;;;14.60;11.60;;;;;;;20.36;43.65;95276.28;6033223;28;109086;-66
2023/05/06 07:42:55;;;;;;;18.70;12.53;;;;;;;20.36;44.62;95276.28;6036172;28;108984;-69
2023/05/06 07:46:01;;;;;;;22.60;12.30;;;;;;;20.41;44.80;95273.53;6035120;28;109399;-67
2023/05/06 07:49:06;;;;;;;12.50;11.30;;;;;;;20.38;44.64;95268.81;6038366;28;109038;-67
2023/05/06 07:52:09;;;;;;;12.00;10.80;;;;;;;20.32;43.41;95270.75;6034786;28;110036;-67
2023/05/06 07:55:12;;;;;;;13.30;9.97;;;;;;;20.40;44.30;95275.41;6042558;28;111951;-67
2023/05/06 07:58:15;;;;;;;15.13;13.27;;;;;;;20.44;45.78;95279.06;6031004;28;109414;-66
2023/05/06 08:01:19;;;;;;;18.00;15.00;;;;;;;20.46;45.37;95266.28;6043458;28;108898;-66
2023/05/06 08:04:23;;;;;;;17.27;14.40;;;;;;;20.67;46.05;95263.28;6037800;28;109244;-66
2023/05/06 08:07:27;;;;;;;17.17;15.40;;;;;;;20.82;46.40;95273.69;6040738;28;109186;-66
2023/05/06 08:10:30;;;;;;;16.47;14.77;;;;;;;20.80;45.65;95266.00;6041609;28;108975;-67
2023/05/06 08:13:33;;;;;;;21.40;15.40;;;;;;;20.87;46.58;95255.78;6040774;28;109139;-66
2023/05/06 08:16:36;;;;;;;20.03;12.77;;;;;;;20.89;46.13;95264.25;6040349;28;109339;-65
2023/05/06 08:19:41;;;;;;;34.00;14.97;;;;;;;20.96;45.98;95263.88;6036089;28;108838;-65
2023/05/06 08:22:44;;;;;;;22.00;13.13;;;;;;;20.98;44.89;95266.22;6034786;28;109130;-66
2023/05/06 08:25:47;;;;;;;26.10;11.97;;;;;;;20.91;44.43;95270.06;6036516;28;109066;-63
2023/05/06 08:28:51;;;;;;;21.47;11.67;;;;;;;20.89;44.85;95268.78;6040565;28;109253;-63
2023/05/06 08:31:54;;;;;;;22.30;11.20;;;;;;;20.93;44.93;95265.25;6030254;28;109387;-63
2023/05/06 08:34:59;;;;;;;19.33;10.77;;;;;;;21.02;44.58;95267.25;6036373;28;109262;-63
2023/05/06 08:38:02;;;;;;;19.87;11.50;;;;;;;21.05;45.20;95264.03;6041324;28;109268;-63
2023/05/06 08:41:09;;;;;;;11.23;10.10;;;;;;;21.12;45.43;95261.75;6039539;28;109391;-63
2023/05/06 08:44:17;;;;;;;14.67;12.50;;;;;;;21.19;45.94;95273.63;6029359;28;110202;-64
2023/05/06 08:47:20;;;;;;;15.30;13.60;;;;;;;21.30;46.07;95271.53;6039925;28;110886;-64
2023/05/06 08:50:25;;;;;;;18.70;17.00;;;;;;;21.30;45.96;95268.88;6039687;28;109544;-64
2023/05/06 08:53:29;;;;;;;19.50;17.50;;;;;;;21.31;47.39;95265.13;6039268;28;109261;-63
2023/05/06 08:56:33;;;;;;;47.90;43.23;;;;;;;21.31;53.93;95253.69;6032991;28;110044;-63
2023/05/06 08:59:37;;;;;;;48.83;44.40;;;;;;;21.50;53.79;95271.16;6040630;28;109155;-64
2023/05/06 09:02:40;;;;;;;42.00;37.90;;;;;;;21.54;53.28;95262.59;6040325;28;112293;-64
2023/05/06 09:05:47;;;;;;;41.27;36.23;;;;;;;21.57;52.08;95262.00;6030752;28;109100;-64
2023/05/06 09:08:50;;;;;;;35.17;32.00;;;;;;;21.52;51.94;95258.34;6038742;28;109165;-67
2023/05/06 09:11:56;;;;;;;35.90;32.70;;;;;;;21.48;50.57;95254.69;6043727;28;109339;-63
2023/05/06 09:14:59;;;;;;;33.07;29.97;;;;;;;21.46;50.70;95256.06;6045860;28;109259;-63
2023/05/06 09:18:02;;;;;;;31.23;27.27;;;;;;;21.36;49.79;95246.41;6037986;28;109382;-63
2023/05/06 09:21:07;;;;;;;30.37;24.73;;;;;;;21.33;49.02;95251.53;6042936;28;109419;-67
2023/05/06 09:24:11;;;;;;;25.87;19.93;;;;;;;21.11;48.43;95239.69;6045239;28;108997;-67
2023/05/06 09:27:15;;;;;;;24.83;18.90;;;;;;;21.15;47.25;95239.88;6039719;28;111235;-67
2023/05/06 09:30:18;;;;;;;22.20;17.70;;;;;;;21.15;46.99;95239.88;6029116;28;110516;-65
2023/05/06 09:33:22;;;;;;;16.83;15.17;;;;;;;21.11;46.53;95238.91;6042354;28;110836;-67
2023/05/06 09:36:28;;;;;;;17.17;14.43;;;;;;;21.10;46.10;95232.00;6047622;28;109174;-67
2023/05/06 09:39:31;;;;;;;15.60;13.80;;;;;;;21.11;45.87;95229.03;6031928;28;109263;-68
2023/05/06 09:42:35;;;;;;;14.60;13.20;;;;;;;21.08;45.63;95223.53;6033640;28;109410;-67
2023/05/06 09:45:39;;;;;;;13.17;11.10;;;;;;;21.05;45.17;95226.78;6040448;28;109317;-68
2023/05/06 09:48:43;;;;;;;12.07;10.20;;;;;;;21.08;44.91;95226.19;6045922;28;108958;-67
2023/05/06 09:51:50;;;;;;;11.23;9.50;;;;;;;21.03;44.62;95221.72;6031504;28;109614;-66
2023/05/06 09:54:54;;;;;;;10.60;9.23;;;;;;;21.01;44.31;95218.56;6038906;28;108981;-67
2023/05/06 09:57:59;;;;;;;9.60;8.07;;;;;;;20.96;43.87;95220.53;6032548;28;109417;-67
2023/05/06 10:01:06;;;;;;;10.70;8.23;;;;;;;20.90;43.69;95225.94;6039128;28;109131;-66
2023/05/06 10:04:12;;;;;;;7.97;7.20;;;;;;;20.85;43.66;95219.94;6028617;28;109770;-66
2023/05/06 10:07:21;;;;;;;7.07;6.37;;;;;;;20.84;42.87;95218.34;6038672;28;109890;-67
2023/05/06 10:10:27;;;;;;;6.47;5.90;;;;;;;20.86;43.13;95222.28;6037640;28;109121;-66
2023/05/06 10:13:30;;;;;;;8.80;6.90;;;;;;;20.78;42.83;95198.22;6033271;28;109041;-67
2023/05/06 10:16:34;;;;;;;7.13;6.53;;;;;;;20.90;42.91;95217.16;6033282;28;109182;-67
2023/05/06 10:19:40;;;;;;;8.80;6.37;;;;;;;20.87;42.82;95223.88;6037708;28;109594;-68
2023/05/06 10:22:57;;;;;;;6.13;5.53;;;;;;;20.85;42.33;95202.09;6040155;28;109223;-67
2023/05/06 10:26:06;;;;;;;6.10;5.60;;;;;;;20.85;42.43;95204.75;6020477;28;109231;-67
2023/05/06 10:29:11;;;;;;;5.97;5.47;;;;;;;20.85;42.41;95210.06;6031059;28;108918;-67
2023/05/06 10:32:14;;;;;;;5.63;5.13;;;;;;;20.85;41.80;95207.41;6037101;28;109042;-68
2023/05/06 10:35:26;;;;;;;5.80;5.40;;;;;;;20.85;42.05;95201.31;6039888;28;109089;-68
2023/05/06 10:38:35;;;;;;;6.20;5.20;;;;;;;20.82;42.20;95202.66;6026980;28;109713;-68
2023/05/06 10:41:38;;;;;;;6.33;5.30;;;;;;;20.83;41.98;95206.91;6036422;28;109143;-70
2023/05/06 10:44:56;;;;;;;6.33;4.90;;;;;;;20.81;41.57;95197.63;6031948;28;110363;-69
2023/05/06 10:48:09;;;;;;;4.90;4.50;;;;;;;20.80;41.95;95209.34;6027661;28;109242;-68
2023/05/06 10:51:23;;;;;;;5.43;4.93;;;;;;;20.84;41.64;95205.84;6034002;28;109090;-69
2023/05/06 10:54:28;;;;;;;6.07;5.30;;;;;;;20.75;41.29;95190.84;6038081;28;109038;-69
2023/05/06 10:57:40;;;;;;;5.20;4.70;;;;;;;20.80;41.70;95199.50;6036775;28;110891;-69
2023/05/06 11:00:53;;;;;;;5.27;4.10;;;;;;;20.82;41.45;95200.00;6024117;28;109249;-69
2023/05/06 11:03:57;;;;;;;5.10;4.73;;;;;;;20.84;41.52;95197.06;6037677;28;109404;-69
2023/05/06 11:07:08;;;;;;;5.03;4.53;;;;;;;20.85;41.34;95199.44;6033634;28;108685;-69
2023/05/06 11:10:13;;;;;;;5.17;4.67;;;;;;;20.86;41.48;95202.88;6031200;28;109256;-69
2023/05/06 11:13:24;;;;;;;5.73;4.70;;;;;;;20.85;41.44;95196.00;6032746;28;109617;-69
2023/05/06 11:16:46;;;;;;;4.60;4.20;;;;;;;20.83;41.40;95201.56;6037055;28;109031;-69
2023/05/06 11:19:50;;;;;;;5.30;4.90;;;;;;;20.78;41.02;95193.69;6039799;28;109212;-69
2023/05/06 11:22:53;;;;;;;4.47;4.07;;;;;;;20.83;41.29;95193.59;6029546;28;109298;-69
2023/05/06 11:25:59;;;;;;;4.60;4.10;;;;;;;20.85;41.22;95194.13;6038261;28;110223;-68
2023/05/06 11:29:03;;;;;;;5.47;4.87;;;;;;;20.86;41.16;95198.34;6037156;28;109592;-68
2023/05/06 11:32:21;;;;;;;5.53;4.40;;;;;;;20.85;41.45;95194.13;6036897;28;109328;-68
2023/05/06 11:35:25;;;;;;;4.63;4.20;;;;;;;20.83;41.20;95187.50;6027845;28;109439;-68
2023/05/06 11:38:42;;;;;;;4.90;4.60;;;;;;;20.82;41.11;95188.56;6041931;28;109257;-68
2023/05/06 11:41:47;;;;;;;4.40;4.00;;;;;;;20.84;41.29;95189.88;6037584;28;108851;-68
2023/05/06 11:44:50;;;;;;;5.30;4.20;;;;;;;20.83;40.83;95193.59;6027381;28;109054;-68
2023/05/06 11:47:55;;;;;;;4.77;4.27;;;;;;;20.74;40.36;95186.59;6034426;28;109073;-69
2023/05/06 11:50:58;;;;;;;4.90;4.00;;;;;;;20.68;39.72;95183.25;6036526;28;109996;-69
2023/05/06 11:54:07;;;;;;;4.37;3.63;;;;;;;20.72;39.86;95199.41;6038496;28;113089;-69
2023/05/06 11:57:12;;;;;;;4.40;3.67;;;;;;;20.70;39.63;95186.41;6026218;28;111356;-68
2023/05/06 12:00:17;;;;;;;4.30;4.00;;;;;;;20.70;39.76;95177.66;6038126;28;109434;-69
2023/05/06 12:03:21;;;;;;;3.83;3.50;;;;;;;20.77;39.48;95184.16;6036614;28;111093;-69
2023/05/06 12:06:34;;;;;;;11.37;5.00;;;;;;;20.80;39.80;95172.13;6036912;28;109101;-68
2023/05/06 12:09:39;;;;;;;14.03;4.97;;;;;;;20.75;40.38;95175.69;6026008;28;109315;-61
2023/05/06 12:12:44;;;;;;;16.10;6.60;;;;;;;20.86;40.27;95171.75;6033991;28;109143;-61
2023/05/06 12:15:48;;;;;;;21.30;6.23;;;;;;;20.98;40.41;95176.56;6036143;28;109073;-61
2023/05/06 12:18:53;;;;;;;17.83;5.90;;;;;;;21.06;40.72;95172.47;6026927;28;109327;-61
2023/05/06 12:22:13;;;;;;;15.23;6.00;;;;;;;21.09;40.54;95175.34;6038402;28;109057;-61
2023/05/06 12:25:17;;;;;;;13.70;5.10;;;;;;;21.14;40.89;95166.47;6039700;28;109074;-61
2023/05/06 12:28:22;;;;;;;12.30;5.97;;;;;;;21.13;41.18;95170.22;6068295;28;111935;-62
2023/05/06 12:31:27;;;;;;;15.83;5.37;;;;;;;21.14;40.94;95174.44;6023276;28;109362;-61
2023/05/06 12:34:37;;;;;;;12.90;4.70;;;;;;;21.16;41.22;95162.41;6040800;28;110140;-61
2023/05/06 12:37:40;;;;;;;14.47;5.97;;;;;;;21.15;41.75;95155.50;6040362;28;109079;-61
2023/05/06 12:40:45;;;;;;;13.57;5.57;;;;;;;21.17;41.87;95147.22;6041230;28;110129;-61
2023/05/06 12:43:51;;;;;;;11.00;5.00;;;;;;;21.19;41.63;95155.72;6030638;28;109340;-61
2023/05/06 12:46:54;;;;;;;8.07;4.67;;;;;;;21.18;42.01;95152.28;6040209;28;110178;-61
2023/05/06 12:49:58;;;;;;;15.40;5.33;;;;;;;21.11;41.62;95143.09;6038961;28;110597;-61
2023/05/06 12:53:01;;;;;;;10.80;4.60;;;;;;;21.10;42.51;95147.63;6028596;28;109036;-65
2023/05/06 12:56:05;;;;;;;13.13;5.33;;;;;;;21.16;42.52;95150.97;6036926;28;110225;-64
2023/05/06 12:59:09;;;;;;;13.77;5.00;;;;;;;21.10;42.79;95152.19;6036243;28;109171;-65
2023/05/06 13:02:13;;;;;;;12.93;4.70;;;;;;;21.14;42.76;95150.50;6038001;28;110820;-64
2023/05/06 13:05:16;;;;;;;8.70;5.10;;;;;;;21.16;42.54;95156.31;6028771;28;109052;-65
2023/05/06 13:08:19;;;;;;;10.77;4.63;;;;;;;21.14;42.57;95159.25;6039871;28;109324;-64
2023/05/06 13:11:23;;;;;;;11.20;4.20;;;;;;;21.14;42.92;95166.47;6039383;28;109119;-64
2023/05/06 13:14:28;;;;;;;10.77;5.23;;;;;;;21.15;42.89;95157.38;6079729;28;109282;-64
2023/05/06 13:17:31;;;;;;;8.77;4.30;;;;;;;21.15;43.31;95158.19;6028981;28;109451;-65
2023/05/06 13:20:34;;;;;;;10.13;4.67;;;;;;;21.13;43.03;95148.91;6039713;28;109574;-65
2023/05/06 13:23:38;;;;;;;6.17;4.03;;;;;;;21.17;43.11;95155.22;6040407;28;109506;-66
2023/05/06 13:26:42;;;;;;;7.90;4.20;;;;;;;21.13;43.27;95162.22;6036164;28;110008;-65
2023/05/06 13:29:46;;;;;;;10.93;4.53;;;;;;;21.16;43.71;95158.97;6034191;28;114033;-67
2023/05/06 13:32:49;;;;;;;6.70;3.83;;;;;;;21.19;43.68;95153.88;6039454;28;109171;-66
2023/05/06 13:35:52;;;;;;;5.80;3.83;;;;;;;21.23;43.60;95156.72;6039846;28;109077;-67
2023/05/06 13:38:56;;;;;;;5.70;3.67;;;;;;;21.26;43.89;95160.66;6028182;28;109195;-66
2023/05/06 13:41:59;;;;;;;9.03;5.10;;;;;;;21.24;44.03;95150.31;6040305;28;109264;-67
2023/05/06 13:45:04;;;;;;;3.70;3.40;;;;;;;21.23;44.24;95135.41;6038205;28;109073;-67
2023/05/06 13:48:07;;;;;;;6.50;3.53;;;;;;;21.22;43.85;95133.84;6039393;28;109351;-66
2023/05/06 13:51:10;;;;;;;4.80;3.80;;;;;;;21.26;44.38;95142.81;6028905;28;109064;-67
2023/05/06 13:54:13;;;;;;;4.30;3.80;;;;;;;21.29;44.35;95142.19;6039804;28;109329;-67
2023/05/06 13:57:17;;;;;;;6.10;3.60;;;;;;;21.29;44.36;95144.88;6039472;28;109342;-67
2023/05/06 14:00:22;;;;;;;8.63;4.30;;;;;;;21.32;44.50;95149.59;6038226;28;109046;-65
2023/05/06 14:03:26;;;;;;;5.47;4.00;;;;;;;21.31;44.83;95140.03;6032467;28;109226;-64
2023/05/06 14:06:29;;;;;;;5.17;3.80;;;;;;;21.31;44.59;95140.03;6039633;28;109369;-65
2023/05/06 14:09:33;;;;;;;8.10;4.17;;;;;;;21.32;44.94;95138.94;6038307;28;109493;-66
2023/05/06 14:12:36;;;;;;;4.87;3.53;;;;;;;21.33;44.70;95137.06;6029141;28;109017;-64